sensor_id;sensor_type;location;lat;lon;timestamp;P1;durP1;ratioP1;P2;durP2;ratioP2
8279;SDS011;8335;42.646;23.380;2022-11-28T00:02:20;14.50;;;9.43;;
8279;SDS011;8335;42.646;23.380;2022-11-28T00:04:49;12.90;;;8.80;;
8279;SDS011;8335;42.646;23.380;2022-11-28T00:07:16;11.97;;;8.77;;
8279;SDS011;8335;42.646;23.380;2022-11-28T00:09:44;14.80;;;9.10;;
8279;SDS011;8335;42.646;23.380;2022-11-28T00:12:11;15.77;;;9.40;;
8279;SDS011;8335;42.646;23.380;2022-11-28T00:14:38;14.17;;;9.07;;
8279;SDS011;8335;42.646;23.380;2022-11-28T00:17:05;15.97;;;9.77;;
8279;SDS011;8335;42.646;23.380;2022-11-28T00:19:32;16.13;;;10.27;;
8279;SDS011;8335;42.646;23.380;2022-11-28T00:21:58;18.00;;;10.50;;
8279;SDS011;8335;42.646;23.380;2022-11-28T00:24:25;13.13;;;8.60;;
8279;SDS011;8335;42.646;23.380;2022-11-28T00:26:53;17.30;;;10.13;;
8279;SDS011;8335;42.646;23.380;2022-11-28T00:29:20;14.63;;;8.90;;
8279;SDS011;8335;42.646;23.380;2022-11-28T00:31:47;16.23;;;9.53;;
8279;SDS011;8335;42.646;23.380;2022-11-28T00:34:14;15.07;;;8.83;;
8279;SDS011;8335;42.646;23.380;2022-11-28T00:36:41;15.00;;;9.70;;
8279;SDS011;8335;42.646;23.380;2022-11-28T00:39:09;14.37;;;9.60;;
8279;SDS011;8335;42.646;23.380;2022-11-28T00:41:36;14.27;;;8.57;;
8279;SDS011;8335;42.646;23.380;2022-11-28T00:44:04;14.43;;;8.97;;
8279;SDS011;8335;42.646;23.380;2022-11-28T00:46:31;15.57;;;9.37;;
8279;SDS011;8335;42.646;23.380;2022-11-28T00:48:58;13.80;;;8.63;;
8279;SDS011;8335;42.646;23.380;2022-11-28T00:51:26;14.13;;;8.07;;
8279;SDS011;8335;42.646;23.380;2022-11-28T00:53:54;15.63;;;8.97;;
8279;SDS011;8335;42.646;23.380;2022-11-28T00:56:25;14.60;;;9.37;;
8279;SDS011;8335;42.646;23.380;2022-11-28T00:58:54;13.27;;;8.80;;
8279;SDS011;8335;42.646;23.380;2022-11-28T01:01:23;15.07;;;8.13;;
8279;SDS011;8335;42.646;23.380;2022-11-28T01:03:52;14.13;;;8.63;;
8279;SDS011;8335;42.646;23.380;2022-11-28T01:06:21;11.93;;;8.00;;
8279;SDS011;8335;42.646;23.380;2022-11-28T01:08:49;12.30;;;8.23;;
8279;SDS011;8335;42.646;23.380;2022-11-28T01:11:16;11.70;;;7.67;;
8279;SDS011;8335;42.646;23.380;2022-11-28T01:13:44;17.10;;;8.40;;
8279;SDS011;8335;42.646;23.380;2022-11-28T01:16:11;14.20;;;8.07;;
8279;SDS011;8335;42.646;23.380;2022-11-28T01:18:39;11.47;;;7.97;;
8279;SDS011;8335;42.646;23.380;2022-11-28T01:21:06;12.13;;;7.70;;
8279;SDS011;8335;42.646;23.380;2022-11-28T01:23:33;13.03;;;8.10;;
8279;SDS011;8335;42.646;23.380;2022-11-28T01:26:01;12.93;;;8.43;;
8279;SDS011;8335;42.646;23.380;2022-11-28T01:28:28;10.83;;;7.63;;
8279;SDS011;8335;42.646;23.380;2022-11-28T01:30:55;14.07;;;8.13;;
8279;SDS011;8335;42.646;23.380;2022-11-28T01:33:22;12.83;;;8.00;;
8279;SDS011;8335;42.646;23.380;2022-11-28T01:35:56;12.10;;;7.27;;
8279;SDS011;8335;42.646;23.380;2022-11-28T01:38:24;10.47;;;7.40;;
8279;SDS011;8335;42.646;23.380;2022-11-28T01:40:51;10.13;;;6.17;;
8279;SDS011;8335;42.646;23.380;2022-11-28T01:43:19;10.40;;;7.27;;
8279;SDS011;8335;42.646;23.380;2022-11-28T01:45:46;11.90;;;7.30;;
8279;SDS011;8335;42.646;23.380;2022-11-28T01:48:14;11.03;;;7.23;;
8279;SDS011;8335;42.646;23.380;2022-11-28T01:50:45;12.63;;;7.73;;
8279;SDS011;8335;42.646;23.380;2022-11-28T01:53:17;10.20;;;6.47;;
8279;SDS011;8335;42.646;23.380;2022-11-28T01:55:46;10.30;;;6.50;;
8279;SDS011;8335;42.646;23.380;2022-11-28T01:58:17;9.30;;;6.40;;
8279;SDS011;8335;42.646;23.380;2022-11-28T02:00:44;10.10;;;6.63;;
8279;SDS011;8335;42.646;23.380;2022-11-28T02:03:13;9.00;;;6.70;;
8279;SDS011;8335;42.646;23.380;2022-11-28T02:05:46;8.93;;;5.70;;
8279;SDS011;8335;42.646;23.380;2022-11-28T02:08:16;9.30;;;5.83;;
8279;SDS011;8335;42.646;23.380;2022-11-28T02:10:48;9.37;;;6.47;;
8279;SDS011;8335;42.646;23.380;2022-11-28T02:13:30;9.93;;;6.17;;
8279;SDS011;8335;42.646;23.380;2022-11-28T02:16:18;8.63;;;5.60;;
8279;SDS011;8335;42.646;23.380;2022-11-28T02:19:05;8.23;;;5.43;;
8279;SDS011;8335;42.646;23.380;2022-11-28T02:21:58;8.00;;;5.60;;
8279;SDS011;8335;42.646;23.380;2022-11-28T02:24:36;7.07;;;5.40;;
8279;SDS011;8335;42.646;23.380;2022-11-28T02:30:17;8.37;;;5.57;;
8279;SDS011;8335;42.646;23.380;2022-11-28T02:35:41;11.53;;;6.23;;
8279;SDS011;8335;42.646;23.380;2022-11-28T02:38:18;8.27;;;5.43;;
8279;SDS011;8335;42.646;23.380;2022-11-28T02:40:56;6.37;;;5.10;;
8279;SDS011;8335;42.646;23.380;2022-11-28T02:43:28;9.10;;;5.83;;
8279;SDS011;8335;42.646;23.380;2022-11-28T02:46:00;10.93;;;6.17;;
8279;SDS011;8335;42.646;23.380;2022-11-28T02:48:31;7.93;;;5.40;;
8279;SDS011;8335;42.646;23.380;2022-11-28T02:51:05;7.57;;;5.30;;
8279;SDS011;8335;42.646;23.380;2022-11-28T02:53:35;7.50;;;5.07;;
8279;SDS011;8335;42.646;23.380;2022-11-28T02:56:03;7.00;;;5.37;;
8279;SDS011;8335;42.646;23.380;2022-11-28T02:58:30;6.63;;;5.20;;
8279;SDS011;8335;42.646;23.380;2022-11-28T03:00:57;8.03;;;5.17;;
8279;SDS011;8335;42.646;23.380;2022-11-28T03:03:29;7.17;;;5.00;;
8279;SDS011;8335;42.646;23.380;2022-11-28T03:06:21;8.73;;;5.10;;
8279;SDS011;8335;42.646;23.380;2022-11-28T03:08:59;7.07;;;4.70;;
8279;SDS011;8335;42.646;23.380;2022-11-28T03:11:41;7.80;;;4.83;;
8279;SDS011;8335;42.646;23.380;2022-11-28T03:14:18;7.17;;;4.80;;
8279;SDS011;8335;42.646;23.380;2022-11-28T03:17:00;6.27;;;5.03;;
8279;SDS011;8335;42.646;23.380;2022-11-28T03:19:36;6.60;;;4.53;;
8279;SDS011;8335;42.646;23.380;2022-11-28T03:22:08;6.10;;;4.60;;
8279;SDS011;8335;42.646;23.380;2022-11-28T03:24:42;5.70;;;4.43;;
8279;SDS011;8335;42.646;23.380;2022-11-28T03:27:13;5.60;;;4.37;;
8279;SDS011;8335;42.646;23.380;2022-11-28T03:29:44;5.53;;;4.23;;
8279;SDS011;8335;42.646;23.380;2022-11-28T03:32:15;5.50;;;4.30;;
8279;SDS011;8335;42.646;23.380;2022-11-28T03:34:46;5.43;;;4.03;;
8279;SDS011;8335;42.646;23.380;2022-11-28T03:37:19;5.80;;;4.20;;
8279;SDS011;8335;42.646;23.380;2022-11-28T03:39:49;5.73;;;3.90;;
8279;SDS011;8335;42.646;23.380;2022-11-28T03:42:26;4.43;;;3.70;;
8279;SDS011;8335;42.646;23.380;2022-11-28T03:44:55;4.60;;;3.50;;
8279;SDS011;8335;42.646;23.380;2022-11-28T03:47:26;5.07;;;3.43;;
8279;SDS011;8335;42.646;23.380;2022-11-28T03:49:59;4.20;;;3.40;;
8279;SDS011;8335;42.646;23.380;2022-11-28T03:52:31;4.10;;;3.30;;
8279;SDS011;8335;42.646;23.380;2022-11-28T03:55:04;4.93;;;3.30;;
8279;SDS011;8335;42.646;23.380;2022-11-28T03:57:36;5.50;;;3.10;;
8279;SDS011;8335;42.646;23.380;2022-11-28T04:00:08;6.00;;;3.30;;
8279;SDS011;8335;42.646;23.380;2022-11-28T04:02:38;4.47;;;3.40;;
8279;SDS011;8335;42.646;23.380;2022-11-28T04:05:16;4.57;;;3.00;;
8279;SDS011;8335;42.646;23.380;2022-11-28T04:07:49;4.40;;;3.37;;
8279;SDS011;8335;42.646;23.380;2022-11-28T04:10:23;4.77;;;3.60;;
8279;SDS011;8335;42.646;23.380;2022-11-28T04:12:56;3.43;;;3.13;;
8279;SDS011;8335;42.646;23.380;2022-11-28T04:15:29;4.97;;;3.30;;
8279;SDS011;8335;42.646;23.380;2022-11-28T04:18:02;4.97;;;3.70;;
8279;SDS011;8335;42.646;23.380;2022-11-28T04:20:34;4.57;;;3.50;;
8279;SDS011;8335;42.646;23.380;2022-11-28T04:23:09;4.37;;;3.70;;
8279;SDS011;8335;42.646;23.380;2022-11-28T04:25:40;5.03;;;3.97;;
8279;SDS011;8335;42.646;23.380;2022-11-28T04:28:12;4.00;;;3.50;;
8279;SDS011;8335;42.646;23.380;2022-11-28T04:30:44;4.80;;;3.37;;
8279;SDS011;8335;42.646;23.380;2022-11-28T04:33:13;4.87;;;3.40;;
8279;SDS011;8335;42.646;23.380;2022-11-28T04:35:44;4.77;;;3.40;;
8279;SDS011;8335;42.646;23.380;2022-11-28T04:38:17;4.37;;;3.33;;
8279;SDS011;8335;42.646;23.380;2022-11-28T04:40:46;5.53;;;3.60;;
8279;SDS011;8335;42.646;23.380;2022-11-28T04:43:18;4.27;;;3.10;;
8279;SDS011;8335;42.646;23.380;2022-11-28T04:45:49;4.27;;;3.27;;
8279;SDS011;8335;42.646;23.380;2022-11-28T04:48:19;5.03;;;3.53;;
8279;SDS011;8335;42.646;23.380;2022-11-28T04:50:48;3.93;;;3.33;;
8279;SDS011;8335;42.646;23.380;2022-11-28T04:53:20;4.70;;;3.23;;
8279;SDS011;8335;42.646;23.380;2022-11-28T04:55:56;3.53;;;3.07;;
8279;SDS011;8335;42.646;23.380;2022-11-28T04:58:28;3.97;;;3.30;;
8279;SDS011;8335;42.646;23.380;2022-11-28T05:00:59;4.53;;;3.50;;
8279;SDS011;8335;42.646;23.380;2022-11-28T05:03:30;5.63;;;3.47;;
8279;SDS011;8335;42.646;23.380;2022-11-28T05:05:57;3.60;;;3.23;;
8279;SDS011;8335;42.646;23.380;2022-11-28T05:08:25;4.50;;;3.40;;
8279;SDS011;8335;42.646;23.380;2022-11-28T05:10:52;4.17;;;3.20;;
8279;SDS011;8335;42.646;23.380;2022-11-28T05:13:18;3.70;;;3.13;;
8279;SDS011;8335;42.646;23.380;2022-11-28T05:15:45;4.97;;;3.63;;
8279;SDS011;8335;42.646;23.380;2022-11-28T05:18:12;4.80;;;3.17;;
8279;SDS011;8335;42.646;23.380;2022-11-28T05:20:39;3.17;;;2.80;;
8279;SDS011;8335;42.646;23.380;2022-11-28T05:23:06;3.60;;;3.10;;
8279;SDS011;8335;42.646;23.380;2022-11-28T05:25:35;4.17;;;3.20;;
8279;SDS011;8335;42.646;23.380;2022-11-28T05:28:03;3.87;;;3.30;;
8279;SDS011;8335;42.646;23.380;2022-11-28T05:30:30;5.13;;;3.90;;
8279;SDS011;8335;42.646;23.380;2022-11-28T05:32:56;3.63;;;3.30;;
8279;SDS011;8335;42.646;23.380;2022-11-28T05:35:23;5.70;;;3.83;;
8279;SDS011;8335;42.646;23.380;2022-11-28T05:37:50;5.73;;;4.20;;
8279;SDS011;8335;42.646;23.380;2022-11-28T05:40:17;5.27;;;3.80;;
8279;SDS011;8335;42.646;23.380;2022-11-28T05:42:45;5.73;;;3.90;;
8279;SDS011;8335;42.646;23.380;2022-11-28T05:45:12;5.37;;;4.03;;
8279;SDS011;8335;42.646;23.380;2022-11-28T05:47:39;5.73;;;4.10;;
8279;SDS011;8335;42.646;23.380;2022-11-28T05:50:06;6.73;;;3.77;;
8279;SDS011;8335;42.646;23.380;2022-11-28T05:52:33;6.83;;;4.60;;
8279;SDS011;8335;42.646;23.380;2022-11-28T05:55:00;6.83;;;4.73;;
8279;SDS011;8335;42.646;23.380;2022-11-28T05:57:26;6.03;;;4.30;;
8279;SDS011;8335;42.646;23.380;2022-11-28T05:59:57;8.07;;;4.93;;
8279;SDS011;8335;42.646;23.380;2022-11-28T06:02:24;8.53;;;4.80;;
8279;SDS011;8335;42.646;23.380;2022-11-28T06:04:51;8.13;;;4.97;;
8279;SDS011;8335;42.646;23.380;2022-11-28T06:07:18;6.43;;;4.87;;
8279;SDS011;8335;42.646;23.380;2022-11-28T06:09:44;7.53;;;5.00;;
8279;SDS011;8335;42.646;23.380;2022-11-28T06:12:11;8.47;;;4.83;;
8279;SDS011;8335;42.646;23.380;2022-11-28T06:14:38;7.70;;;5.30;;
8279;SDS011;8335;42.646;23.380;2022-11-28T06:17:06;7.50;;;5.13;;
8279;SDS011;8335;42.646;23.380;2022-11-28T06:19:33;9.43;;;5.77;;
8279;SDS011;8335;42.646;23.380;2022-11-28T06:22:00;9.33;;;6.03;;
8279;SDS011;8335;42.646;23.380;2022-11-28T06:24:26;9.30;;;5.60;;
8279;SDS011;8335;42.646;23.380;2022-11-28T06:26:53;9.20;;;6.57;;
8279;SDS011;8335;42.646;23.380;2022-11-28T06:29:20;10.73;;;6.53;;
8279;SDS011;8335;42.646;23.380;2022-11-28T06:31:47;8.83;;;6.00;;
8279;SDS011;8335;42.646;23.380;2022-11-28T06:34:15;10.00;;;6.47;;
8279;SDS011;8335;42.646;23.380;2022-11-28T06:36:42;13.07;;;6.73;;
8279;SDS011;8335;42.646;23.380;2022-11-28T06:39:10;10.53;;;6.53;;
8279;SDS011;8335;42.646;23.380;2022-11-28T06:41:39;12.60;;;7.07;;
8279;SDS011;8335;42.646;23.380;2022-11-28T06:44:06;10.60;;;6.40;;
8279;SDS011;8335;42.646;23.380;2022-11-28T06:46:32;10.30;;;6.33;;
8279;SDS011;8335;42.646;23.380;2022-11-28T06:48:59;11.07;;;6.67;;
8279;SDS011;8335;42.646;23.380;2022-11-28T06:51:27;12.13;;;8.30;;
8279;SDS011;8335;42.646;23.380;2022-11-28T06:53:54;9.50;;;6.13;;
8279;SDS011;8335;42.646;23.380;2022-11-28T06:56:21;9.70;;;6.20;;
8279;SDS011;8335;42.646;23.380;2022-11-28T06:58:52;8.80;;;6.07;;
8279;SDS011;8335;42.646;23.380;2022-11-28T07:01:20;8.97;;;6.50;;
8279;SDS011;8335;42.646;23.380;2022-11-28T07:03:48;11.43;;;7.17;;
8279;SDS011;8335;42.646;23.380;2022-11-28T07:06:16;12.50;;;7.17;;
8279;SDS011;8335;42.646;23.380;2022-11-28T07:08:45;13.23;;;8.00;;
8279;SDS011;8335;42.646;23.380;2022-11-28T07:11:13;11.27;;;7.73;;
8279;SDS011;8335;42.646;23.380;2022-11-28T07:13:42;12.03;;;7.50;;
8279;SDS011;8335;42.646;23.380;2022-11-28T07:16:12;15.07;;;7.63;;
8279;SDS011;8335;42.646;23.380;2022-11-28T07:18:40;8.67;;;6.17;;
8279;SDS011;8335;42.646;23.380;2022-11-28T07:21:06;8.63;;;5.70;;
8279;SDS011;8335;42.646;23.380;2022-11-28T07:23:34;7.73;;;5.47;;
8279;SDS011;8335;42.646;23.380;2022-11-28T07:26:03;7.03;;;5.30;;
8279;SDS011;8335;42.646;23.380;2022-11-28T07:28:31;8.13;;;5.20;;
8279;SDS011;8335;42.646;23.380;2022-11-28T07:31:00;8.23;;;5.50;;
8279;SDS011;8335;42.646;23.380;2022-11-28T07:33:28;7.97;;;5.43;;
8279;SDS011;8335;42.646;23.380;2022-11-28T07:35:58;9.03;;;6.37;;
8279;SDS011;8335;42.646;23.380;2022-11-28T07:38:26;8.40;;;5.83;;
8279;SDS011;8335;42.646;23.380;2022-11-28T07:40:52;9.77;;;6.43;;
8279;SDS011;8335;42.646;23.380;2022-11-28T07:43:21;8.30;;;5.30;;
8279;SDS011;8335;42.646;23.380;2022-11-28T07:45:47;6.43;;;4.47;;
8279;SDS011;8335;42.646;23.380;2022-11-28T07:48:14;6.10;;;4.20;;
8279;SDS011;8335;42.646;23.380;2022-11-28T07:50:41;7.67;;;4.60;;
8279;SDS011;8335;42.646;23.380;2022-11-28T07:53:07;7.33;;;4.50;;
8279;SDS011;8335;42.646;23.380;2022-11-28T07:55:34;6.97;;;5.03;;
8279;SDS011;8335;42.646;23.380;2022-11-28T07:58:01;6.90;;;4.63;;
8279;SDS011;8335;42.646;23.380;2022-11-28T08:00:30;16.70;;;5.90;;
8279;SDS011;8335;42.646;23.380;2022-11-28T08:02:56;7.07;;;5.03;;
8279;SDS011;8335;42.646;23.380;2022-11-28T08:05:23;7.77;;;4.90;;
8279;SDS011;8335;42.646;23.380;2022-11-28T08:07:50;6.33;;;4.33;;
8279;SDS011;8335;42.646;23.380;2022-11-28T08:10:17;6.33;;;4.67;;
8279;SDS011;8335;42.646;23.380;2022-11-28T08:12:44;8.33;;;6.00;;
8279;SDS011;8335;42.646;23.380;2022-11-28T08:15:11;6.60;;;4.80;;
8279;SDS011;8335;42.646;23.380;2022-11-28T08:17:39;6.23;;;4.40;;
8279;SDS011;8335;42.646;23.380;2022-11-28T08:20:07;6.43;;;4.80;;
8279;SDS011;8335;42.646;23.380;2022-11-28T08:22:34;7.10;;;5.03;;
8279;SDS011;8335;42.646;23.380;2022-11-28T08:25:01;6.23;;;4.73;;
8279;SDS011;8335;42.646;23.380;2022-11-28T08:27:28;7.37;;;5.00;;
8279;SDS011;8335;42.646;23.380;2022-11-28T08:29:54;7.23;;;5.13;;
8279;SDS011;8335;42.646;23.380;2022-11-28T08:32:21;7.03;;;4.80;;
8279;SDS011;8335;42.646;23.380;2022-11-28T08:34:49;7.03;;;4.60;;
8279;SDS011;8335;42.646;23.380;2022-11-28T08:37:16;6.57;;;5.07;;
8279;SDS011;8335;42.646;23.380;2022-11-28T08:39:43;6.13;;;4.60;;
8279;SDS011;8335;42.646;23.380;2022-11-28T08:42:09;6.73;;;4.70;;
8279;SDS011;8335;42.646;23.380;2022-11-28T08:44:36;7.37;;;4.33;;
8279;SDS011;8335;42.646;23.380;2022-11-28T08:47:03;5.80;;;4.10;;
8279;SDS011;8335;42.646;23.380;2022-11-28T08:49:30;6.33;;;4.50;;
8279;SDS011;8335;42.646;23.380;2022-11-28T08:51:58;5.30;;;4.40;;
8279;SDS011;8335;42.646;23.380;2022-11-28T08:54:25;6.73;;;4.33;;
8279;SDS011;8335;42.646;23.380;2022-11-28T08:56:52;5.87;;;4.60;;
8279;SDS011;8335;42.646;23.380;2022-11-28T08:59:18;5.60;;;4.40;;
8279;SDS011;8335;42.646;23.380;2022-11-28T09:01:45;9.57;;;5.40;;
8279;SDS011;8335;42.646;23.380;2022-11-28T09:04:12;6.33;;;4.73;;
8279;SDS011;8335;42.646;23.380;2022-11-28T09:06:39;7.30;;;4.47;;
8279;SDS011;8335;42.646;23.380;2022-11-28T09:09:07;7.07;;;4.67;;
8279;SDS011;8335;42.646;23.380;2022-11-28T09:11:34;9.80;;;5.67;;
8279;SDS011;8335;42.646;23.380;2022-11-28T09:14:02;5.93;;;4.33;;
8279;SDS011;8335;42.646;23.380;2022-11-28T09:16:29;5.73;;;4.30;;
8279;SDS011;8335;42.646;23.380;2022-11-28T09:18:56;5.13;;;3.60;;
8279;SDS011;8335;42.646;23.380;2022-11-28T09:21:23;5.70;;;3.90;;
8279;SDS011;8335;42.646;23.380;2022-11-28T09:23:53;4.30;;;3.53;;
8279;SDS011;8335;42.646;23.380;2022-11-28T09:26:22;5.37;;;3.60;;
8279;SDS011;8335;42.646;23.380;2022-11-28T09:28:50;4.27;;;3.33;;
8279;SDS011;8335;42.646;23.380;2022-11-28T09:31:17;3.67;;;3.00;;
8279;SDS011;8335;42.646;23.380;2022-11-28T09:33:44;4.93;;;3.47;;
8279;SDS011;8335;42.646;23.380;2022-11-28T09:36:14;3.00;;;2.60;;
8279;SDS011;8335;42.646;23.380;2022-11-28T09:38:41;5.07;;;3.37;;
8279;SDS011;8335;42.646;23.380;2022-11-28T09:43:58;3.47;;;2.90;;
8279;SDS011;8335;42.646;23.380;2022-11-28T09:46:30;4.57;;;2.90;;
8279;SDS011;8335;42.646;23.380;2022-11-28T09:49:00;3.17;;;2.57;;
8279;SDS011;8335;42.646;23.380;2022-11-28T09:51:30;3.60;;;2.80;;
8279;SDS011;8335;42.646;23.380;2022-11-28T09:54:04;3.23;;;2.50;;
8279;SDS011;8335;42.646;23.380;2022-11-28T09:56:39;3.27;;;2.83;;
8279;SDS011;8335;42.646;23.380;2022-11-28T09:59:08;3.93;;;3.30;;
8279;SDS011;8335;42.646;23.380;2022-11-28T10:01:45;7.47;;;4.40;;
8279;SDS011;8335;42.646;23.380;2022-11-28T10:04:23;2.47;;;2.17;;
8279;SDS011;8335;42.646;23.380;2022-11-28T10:06:55;2.93;;;2.57;;
8279;SDS011;8335;42.646;23.380;2022-11-28T10:09:32;1.97;;;1.83;;
8279;SDS011;8335;42.646;23.380;2022-11-28T10:12:12;2.30;;;2.10;;
8279;SDS011;8335;42.646;23.380;2022-11-28T10:14:56;2.47;;;2.00;;
8279;SDS011;8335;42.646;23.380;2022-11-28T10:17:36;2.50;;;2.10;;
8279;SDS011;8335;42.646;23.380;2022-11-28T10:20:14;2.60;;;2.20;;
8279;SDS011;8335;42.646;23.380;2022-11-28T10:22:47;2.27;;;1.97;;
8279;SDS011;8335;42.646;23.380;2022-11-28T10:25:18;2.57;;;2.23;;
8279;SDS011;8335;42.646;23.380;2022-11-28T10:27:48;4.03;;;3.00;;
8279;SDS011;8335;42.646;23.380;2022-11-28T10:30:20;3.57;;;2.83;;
8279;SDS011;8335;42.646;23.380;2022-11-28T10:32:53;3.37;;;2.73;;
8279;SDS011;8335;42.646;23.380;2022-11-28T10:35:27;3.27;;;2.97;;
8279;SDS011;8335;42.646;23.380;2022-11-28T10:38:00;3.33;;;2.97;;
8279;SDS011;8335;42.646;23.380;2022-11-28T10:40:30;3.77;;;3.07;;
8279;SDS011;8335;42.646;23.380;2022-11-28T10:43:09;3.10;;;2.50;;
8279;SDS011;8335;42.646;23.380;2022-11-28T10:45:42;3.63;;;2.77;;
8279;SDS011;8335;42.646;23.380;2022-11-28T10:48:18;3.93;;;2.93;;
8279;SDS011;8335;42.646;23.380;2022-11-28T10:50:57;3.83;;;2.90;;
8279;SDS011;8335;42.646;23.380;2022-11-28T10:53:36;4.10;;;2.77;;
8279;SDS011;8335;42.646;23.380;2022-11-28T10:56:11;4.43;;;2.70;;
8279;SDS011;8335;42.646;23.380;2022-11-28T10:58:49;3.47;;;2.70;;
8279;SDS011;8335;42.646;23.380;2022-11-28T11:01:23;3.87;;;2.57;;
8279;SDS011;8335;42.646;23.380;2022-11-28T11:03:54;3.03;;;2.60;;
8279;SDS011;8335;42.646;23.380;2022-11-28T11:06:23;2.97;;;2.60;;
8279;SDS011;8335;42.646;23.380;2022-11-28T11:08:50;3.43;;;2.63;;
8279;SDS011;8335;42.646;23.380;2022-11-28T11:11:20;3.30;;;2.70;;
8279;SDS011;8335;42.646;23.380;2022-11-28T11:13:56;2.50;;;2.30;;
8279;SDS011;8335;42.646;23.380;2022-11-28T11:16:28;2.57;;;2.23;;
8279;SDS011;8335;42.646;23.380;2022-11-28T11:19:21;3.27;;;2.47;;
8279;SDS011;8335;42.646;23.380;2022-11-28T11:21:56;3.77;;;2.33;;
8279;SDS011;8335;42.646;23.380;2022-11-28T11:24:25;3.43;;;2.70;;
8279;SDS011;8335;42.646;23.380;2022-11-28T11:26:52;3.13;;;2.67;;
8279;SDS011;8335;42.646;23.380;2022-11-28T11:29:22;2.57;;;2.37;;
8279;SDS011;8335;42.646;23.380;2022-11-28T11:31:55;4.73;;;3.27;;
8279;SDS011;8335;42.646;23.380;2022-11-28T11:34:27;4.93;;;3.23;;
8279;SDS011;8335;42.646;23.380;2022-11-28T11:37:15;4.33;;;3.50;;
8279;SDS011;8335;42.646;23.380;2022-11-28T11:39:47;4.47;;;3.40;;
8279;SDS011;8335;42.646;23.380;2022-11-28T11:42:19;3.40;;;2.77;;
8279;SDS011;8335;42.646;23.380;2022-11-28T11:44:48;3.63;;;3.00;;
8279;SDS011;8335;42.646;23.380;2022-11-28T11:47:16;3.10;;;2.60;;
8279;SDS011;8335;42.646;23.380;2022-11-28T11:49:43;3.90;;;3.00;;
8279;SDS011;8335;42.646;23.380;2022-11-28T11:52:27;3.30;;;3.00;;
8279;SDS011;8335;42.646;23.380;2022-11-28T11:54:55;3.73;;;2.70;;
8279;SDS011;8335;42.646;23.380;2022-11-28T11:57:27;3.93;;;2.80;;
8279;SDS011;8335;42.646;23.380;2022-11-28T12:00:01;3.37;;;3.03;;
8279;SDS011;8335;42.646;23.380;2022-11-28T12:02:33;3.60;;;2.80;;
8279;SDS011;8335;42.646;23.380;2022-11-28T12:05:03;3.20;;;2.90;;
8279;SDS011;8335;42.646;23.380;2022-11-28T12:07:36;6.23;;;4.10;;
8279;SDS011;8335;42.646;23.380;2022-11-28T12:10:10;5.27;;;4.07;;
8279;SDS011;8335;42.646;23.380;2022-11-28T12:12:41;6.10;;;4.53;;
8279;SDS011;8335;42.646;23.380;2022-11-28T12:15:14;6.87;;;4.70;;
8279;SDS011;8335;42.646;23.380;2022-11-28T12:17:52;6.57;;;4.57;;
8279;SDS011;8335;42.646;23.380;2022-11-28T12:20:35;8.30;;;5.57;;
8279;SDS011;8335;42.646;23.380;2022-11-28T12:23:11;8.43;;;3.77;;
8279;SDS011;8335;42.646;23.380;2022-11-28T12:25:50;4.77;;;3.40;;
8279;SDS011;8335;42.646;23.380;2022-11-28T12:28:24;4.90;;;3.77;;
8279;SDS011;8335;42.646;23.380;2022-11-28T12:31:08;6.13;;;3.77;;
8279;SDS011;8335;42.646;23.380;2022-11-28T12:33:46;5.63;;;3.80;;
8279;SDS011;8335;42.646;23.380;2022-11-28T12:36:25;6.90;;;5.07;;
8279;SDS011;8335;42.646;23.380;2022-11-28T12:39:02;6.53;;;4.70;;
8279;SDS011;8335;42.646;23.380;2022-11-28T12:41:51;6.50;;;4.27;;
8279;SDS011;8335;42.646;23.380;2022-11-28T12:44:37;6.87;;;4.53;;
8279;SDS011;8335;42.646;23.380;2022-11-28T12:47:15;5.03;;;4.00;;
8279;SDS011;8335;42.646;23.380;2022-11-28T12:49:53;6.23;;;4.77;;
8279;SDS011;8335;42.646;23.380;2022-11-28T12:52:29;7.47;;;4.90;;
8279;SDS011;8335;42.646;23.380;2022-11-28T12:55:07;6.83;;;5.20;;
8279;SDS011;8335;42.646;23.380;2022-11-28T12:57:55;6.80;;;4.83;;
8279;SDS011;8335;42.646;23.380;2022-11-28T13:00:26;7.90;;;4.97;;
8279;SDS011;8335;42.646;23.380;2022-11-28T13:02:59;8.53;;;4.47;;
8279;SDS011;8335;42.646;23.380;2022-11-28T13:05:37;6.53;;;4.90;;
8279;SDS011;8335;42.646;23.380;2022-11-28T13:08:16;6.73;;;5.10;;
8279;SDS011;8335;42.646;23.380;2022-11-28T13:11:10;6.97;;;5.33;;
8279;SDS011;8335;42.646;23.380;2022-11-28T13:13:44;7.27;;;5.53;;
8279;SDS011;8335;42.646;23.380;2022-11-28T13:16:18;7.80;;;5.80;;
8279;SDS011;8335;42.646;23.380;2022-11-28T13:18:54;7.60;;;5.70;;
8279;SDS011;8335;42.646;23.380;2022-11-28T13:21:29;8.83;;;5.50;;
8279;SDS011;8335;42.646;23.380;2022-11-28T13:24:03;7.70;;;5.93;;
8279;SDS011;8335;42.646;23.380;2022-11-28T13:26:40;6.97;;;5.40;;
8279;SDS011;8335;42.646;23.380;2022-11-28T13:29:18;8.30;;;5.70;;
8279;SDS011;8335;42.646;23.380;2022-11-28T13:31:52;9.80;;;5.77;;
8279;SDS011;8335;42.646;23.380;2022-11-28T13:34:26;8.57;;;6.00;;
8279;SDS011;8335;42.646;23.380;2022-11-28T13:36:56;9.47;;;6.57;;
8279;SDS011;8335;42.646;23.380;2022-11-28T13:39:29;9.13;;;6.30;;
8279;SDS011;8335;42.646;23.380;2022-11-28T13:42:07;7.63;;;5.23;;
8279;SDS011;8335;42.646;23.380;2022-11-28T13:44:48;9.53;;;5.73;;
8279;SDS011;8335;42.646;23.380;2022-11-28T13:47:25;11.13;;;6.00;;
8279;SDS011;8335;42.646;23.380;2022-11-28T13:52:59;6.30;;;4.60;;
8279;SDS011;8335;42.646;23.380;2022-11-28T13:55:37;6.07;;;4.17;;
8279;SDS011;8335;42.646;23.380;2022-11-28T14:00:59;4.77;;;3.60;;
8279;SDS011;8335;42.646;23.380;2022-11-28T14:03:30;4.47;;;3.83;;
8279;SDS011;8335;42.646;23.380;2022-11-28T14:06:01;5.60;;;4.13;;
8279;SDS011;8335;42.646;23.380;2022-11-28T14:08:31;5.60;;;3.60;;
8279;SDS011;8335;42.646;23.380;2022-11-28T14:11:05;3.60;;;3.10;;
8279;SDS011;8335;42.646;23.380;2022-11-28T14:13:48;4.17;;;3.50;;
8279;SDS011;8335;42.646;23.380;2022-11-28T14:16:29;5.93;;;3.63;;
8279;SDS011;8335;42.646;23.380;2022-11-28T14:19:12;4.30;;;3.60;;
8279;SDS011;8335;42.646;23.380;2022-11-28T14:21:58;5.60;;;3.47;;
8279;SDS011;8335;42.646;23.380;2022-11-28T14:24:39;7.77;;;4.10;;
8279;SDS011;8335;42.646;23.380;2022-11-28T14:27:15;4.90;;;3.83;;
8279;SDS011;8335;42.646;23.380;2022-11-28T14:29:46;4.53;;;3.93;;
8279;SDS011;8335;42.646;23.380;2022-11-28T14:32:23;7.60;;;4.07;;
8279;SDS011;8335;42.646;23.380;2022-11-28T14:34:53;6.37;;;4.10;;
8279;SDS011;8335;42.646;23.380;2022-11-28T14:43:29;7.53;;;5.17;;
8279;SDS011;8335;42.646;23.380;2022-11-28T14:54:43;9.30;;;5.57;;
8279;SDS011;8335;42.646;23.380;2022-11-28T14:57:13;9.47;;;5.70;;
8279;SDS011;8335;42.646;23.380;2022-11-28T14:59:43;8.50;;;5.80;;
8279;SDS011;8335;42.646;23.380;2022-11-28T15:08:09;5.50;;;4.30;;
8279;SDS011;8335;42.646;23.380;2022-11-28T15:10:52;5.37;;;3.80;;
8279;SDS011;8335;42.646;23.380;2022-11-28T15:13:31;5.87;;;3.70;;
8279;SDS011;8335;42.646;23.380;2022-11-28T15:16:09;8.57;;;4.80;;
8279;SDS011;8335;42.646;23.380;2022-11-28T15:18:40;11.13;;;5.23;;
8279;SDS011;8335;42.646;23.380;2022-11-28T15:21:14;5.83;;;4.17;;
8279;SDS011;8335;42.646;23.380;2022-11-28T15:23:43;6.57;;;4.50;;
8279;SDS011;8335;42.646;23.380;2022-11-28T15:26:17;6.43;;;4.50;;
8279;SDS011;8335;42.646;23.380;2022-11-28T15:28:46;7.77;;;3.87;;
8279;SDS011;8335;42.646;23.380;2022-11-28T15:31:18;5.03;;;4.13;;
8279;SDS011;8335;42.646;23.380;2022-11-28T15:33:47;7.37;;;4.23;;
8279;SDS011;8335;42.646;23.380;2022-11-28T15:36:19;7.00;;;4.63;;
8279;SDS011;8335;42.646;23.380;2022-11-28T15:38:50;8.07;;;4.60;;
8279;SDS011;8335;42.646;23.380;2022-11-28T15:41:20;7.23;;;5.17;;
8279;SDS011;8335;42.646;23.380;2022-11-28T15:43:48;10.03;;;5.07;;
8279;SDS011;8335;42.646;23.380;2022-11-28T15:46:16;6.27;;;4.50;;
8279;SDS011;8335;42.646;23.380;2022-11-28T15:48:48;6.47;;;4.33;;
8279;SDS011;8335;42.646;23.380;2022-11-28T15:51:20;9.73;;;4.77;;
8279;SDS011;8335;42.646;23.380;2022-11-28T15:53:51;7.50;;;4.30;;
8279;SDS011;8335;42.646;23.380;2022-11-28T15:56:20;7.67;;;5.43;;
8279;SDS011;8335;42.646;23.380;2022-11-28T15:58:47;6.97;;;5.30;;